sensor_id;sensor_type;location;lat;lon;timestamp;temperature;humidity
7998;DHT22;4044;49.814;7.828;2022-08-21T00:00:25;14.70;79.80
7998;DHT22;4044;49.814;7.828;2022-08-21T00:02:57;14.70;80.40
7998;DHT22;4044;49.814;7.828;2022-08-21T00:05:25;14.60;78.60
7998;DHT22;4044;49.814;7.828;2022-08-21T00:07:51;14.60;78.80
7998;DHT22;4044;49.814;7.828;2022-08-21T00:10:17;14.60;79.10
7998;DHT22;4044;49.814;7.828;2022-08-21T00:12:43;14.60;79.90
7998;DHT22;4044;49.814;7.828;2022-08-21T00:15:12;14.60;80.10
7998;DHT22;4044;49.814;7.828;2022-08-21T00:17:38;14.50;80.50
7998;DHT22;4044;49.814;7.828;2022-08-21T00:20:07;14.50;79.80
7998;DHT22;4044;49.814;7.828;2022-08-21T00:22:34;14.50;79.80
7998;DHT22;4044;49.814;7.828;2022-08-21T00:24:59;14.40;80.80
7998;DHT22;4044;49.814;7.828;2022-08-21T00:27:25;14.40;82.80
7998;DHT22;4044;49.814;7.828;2022-08-21T00:29:51;14.40;80.40
7998;DHT22;4044;49.814;7.828;2022-08-21T00:32:23;14.30;79.80
7998;DHT22;4044;49.814;7.828;2022-08-21T00:34:50;14.20;80.60
7998;DHT22;4044;49.814;7.828;2022-08-21T00:37:15;14.10;83.70
7998;DHT22;4044;49.814;7.828;2022-08-21T00:39:41;14.10;81.50
7998;DHT22;4044;49.814;7.828;2022-08-21T00:42:06;14.10;83.70
7998;DHT22;4044;49.814;7.828;2022-08-21T00:44:32;14.10;83.60
7998;DHT22;4044;49.814;7.828;2022-08-21T00:46:58;14.10;84.80
7998;DHT22;4044;49.814;7.828;2022-08-21T00:49:23;14.10;84.20
7998;DHT22;4044;49.814;7.828;2022-08-21T00:51:52;14.10;83.50
7998;DHT22;4044;49.814;7.828;2022-08-21T00:54:21;14.10;82.90
7998;DHT22;4044;49.814;7.828;2022-08-21T00:56:50;14.00;85.00
7998;DHT22;4044;49.814;7.828;2022-08-21T00:59:19;14.00;84.50
7998;DHT22;4044;49.814;7.828;2022-08-21T01:01:45;14.00;83.20
7998;DHT22;4044;49.814;7.828;2022-08-21T01:04:11;14.00;84.10
7998;DHT22;4044;49.814;7.828;2022-08-21T01:06:37;13.90;84.00
7998;DHT22;4044;49.814;7.828;2022-08-21T01:09:03;13.80;83.30
7998;DHT22;4044;49.814;7.828;2022-08-21T01:11:28;13.80;83.90
7998;DHT22;4044;49.814;7.828;2022-08-21T01:13:54;13.70;83.70
7998;DHT22;4044;49.814;7.828;2022-08-21T01:16:21;13.70;85.10
7998;DHT22;4044;49.814;7.828;2022-08-21T01:18:47;13.80;83.70
7998;DHT22;4044;49.814;7.828;2022-08-21T01:21:17;13.70;83.70
7998;DHT22;4044;49.814;7.828;2022-08-21T01:23:45;13.70;84.40
7998;DHT22;4044;49.814;7.828;2022-08-21T01:26:13;13.60;85.50
7998;DHT22;4044;49.814;7.828;2022-08-21T01:28:48;13.50;86.10
7998;DHT22;4044;49.814;7.828;2022-08-21T01:31:15;13.50;84.50
7998;DHT22;4044;49.814;7.828;2022-08-21T01:33:42;13.40;85.40
7998;DHT22;4044;49.814;7.828;2022-08-21T01:36:08;13.40;85.40
7998;DHT22;4044;49.814;7.828;2022-08-21T01:38:34;13.30;86.50
7998;DHT22;4044;49.814;7.828;2022-08-21T01:40:59;13.30;86.60
7998;DHT22;4044;49.814;7.828;2022-08-21T01:43:25;13.30;86.90
7998;DHT22;4044;49.814;7.828;2022-08-21T01:45:51;13.20;87.50
7998;DHT22;4044;49.814;7.828;2022-08-21T01:48:16;13.30;87.20
7998;DHT22;4044;49.814;7.828;2022-08-21T01:50:42;13.30;84.90
7998;DHT22;4044;49.814;7.828;2022-08-21T01:53:07;13.30;85.20
7998;DHT22;4044;49.814;7.828;2022-08-21T01:55:33;13.30;84.90
7998;DHT22;4044;49.814;7.828;2022-08-21T01:57:59;13.30;88.00
7998;DHT22;4044;49.814;7.828;2022-08-21T02:00:25;13.20;85.60
7998;DHT22;4044;49.814;7.828;2022-08-21T02:02:51;13.20;86.90
7998;DHT22;4044;49.814;7.828;2022-08-21T02:05:18;13.10;85.10
7998;DHT22;4044;49.814;7.828;2022-08-21T02:07:47;13.10;85.80
7998;DHT22;4044;49.814;7.828;2022-08-21T02:10:19;13.10;85.60
7998;DHT22;4044;49.814;7.828;2022-08-21T02:12:45;13.00;85.70
7998;DHT22;4044;49.814;7.828;2022-08-21T02:15:11;13.00;86.20
7998;DHT22;4044;49.814;7.828;2022-08-21T02:17:56;13.00;88.40
7998;DHT22;4044;49.814;7.828;2022-08-21T02:20:28;13.00;86.70
7998;DHT22;4044;49.814;7.828;2022-08-21T02:22:54;12.90;87.10
7998;DHT22;4044;49.814;7.828;2022-08-21T02:25:21;12.90;87.40
7998;DHT22;4044;49.814;7.828;2022-08-21T02:27:47;12.90;90.00
7998;DHT22;4044;49.814;7.828;2022-08-21T02:30:34;12.80;88.60
7998;DHT22;4044;49.814;7.828;2022-08-21T02:33:01;12.80;87.50
7998;DHT22;4044;49.814;7.828;2022-08-21T02:35:27;12.80;86.30
7998;DHT22;4044;49.814;7.828;2022-08-21T02:37:59;12.80;86.60
7998;DHT22;4044;49.814;7.828;2022-08-21T02:40:28;12.80;85.40
7998;DHT22;4044;49.814;7.828;2022-08-21T02:42:56;12.80;88.10
7998;DHT22;4044;49.814;7.828;2022-08-21T02:45:22;12.70;88.20
7998;DHT22;4044;49.814;7.828;2022-08-21T02:47:52;12.70;87.90
7998;DHT22;4044;49.814;7.828;2022-08-21T02:50:22;12.70;87.60
7998;DHT22;4044;49.814;7.828;2022-08-21T02:52:48;12.70;87.90
7998;DHT22;4044;49.814;7.828;2022-08-21T02:55:15;12.60;88.50
7998;DHT22;4044;49.814;7.828;2022-08-21T02:57:41;12.60;86.50
7998;DHT22;4044;49.814;7.828;2022-08-21T03:00:07;12.60;90.50
7998;DHT22;4044;49.814;7.828;2022-08-21T03:02:34;12.60;91.00
7998;DHT22;4044;49.814;7.828;2022-08-21T03:05:00;12.50;91.20
7998;DHT22;4044;49.814;7.828;2022-08-21T03:07:25;12.50;91.90
7998;DHT22;4044;49.814;7.828;2022-08-21T03:09:51;12.50;91.70
7998;DHT22;4044;49.814;7.828;2022-08-21T03:12:17;12.50;91.70
7998;DHT22;4044;49.814;7.828;2022-08-21T03:14:42;12.50;91.70
7998;DHT22;4044;49.814;7.828;2022-08-21T03:17:08;12.50;90.90
7998;DHT22;4044;49.814;7.828;2022-08-21T03:19:34;12.50;91.40
7998;DHT22;4044;49.814;7.828;2022-08-21T03:22:00;12.50;91.20
7998;DHT22;4044;49.814;7.828;2022-08-21T03:24:25;12.50;91.10
7998;DHT22;4044;49.814;7.828;2022-08-21T03:26:51;12.50;91.00
7998;DHT22;4044;49.814;7.828;2022-08-21T03:29:17;12.40;90.50
7998;DHT22;4044;49.814;7.828;2022-08-21T03:31:42;12.30;90.70
7998;DHT22;4044;49.814;7.828;2022-08-21T03:34:08;12.30;90.70
7998;DHT22;4044;49.814;7.828;2022-08-21T03:36:33;12.30;90.60
7998;DHT22;4044;49.814;7.828;2022-08-21T03:38:59;12.20;90.60
7998;DHT22;4044;49.814;7.828;2022-08-21T03:41:24;12.20;90.10
7998;DHT22;4044;49.814;7.828;2022-08-21T03:43:50;12.30;90.40
7998;DHT22;4044;49.814;7.828;2022-08-21T03:46:15;12.30;90.40
7998;DHT22;4044;49.814;7.828;2022-08-21T03:48:41;12.20;90.20
7998;DHT22;4044;49.814;7.828;2022-08-21T03:51:07;12.30;90.00
7998;DHT22;4044;49.814;7.828;2022-08-21T03:53:32;12.20;90.80
7998;DHT22;4044;49.814;7.828;2022-08-21T03:55:58;12.20;90.80
7998;DHT22;4044;49.814;7.828;2022-08-21T03:58:26;12.20;91.00
7998;DHT22;4044;49.814;7.828;2022-08-21T04:00:55;12.20;90.90
7998;DHT22;4044;49.814;7.828;2022-08-21T04:03:22;12.20;90.10
7998;DHT22;4044;49.814;7.828;2022-08-21T04:05:47;12.20;91.00
7998;DHT22;4044;49.814;7.828;2022-08-21T04:08:14;12.20;90.00
7998;DHT22;4044;49.814;7.828;2022-08-21T04:10:40;12.20;90.60
7998;DHT22;4044;49.814;7.828;2022-08-21T04:13:07;12.20;91.20
7998;DHT22;4044;49.814;7.828;2022-08-21T04:15:33;12.20;91.30
7998;DHT22;4044;49.814;7.828;2022-08-21T04:17:59;12.10;91.70
7998;DHT22;4044;49.814;7.828;2022-08-21T04:20:25;12.10;92.00
7998;DHT22;4044;49.814;7.828;2022-08-21T04:22:51;12.10;91.90
7998;DHT22;4044;49.814;7.828;2022-08-21T04:25:19;12.10;92.00
7998;DHT22;4044;49.814;7.828;2022-08-21T04:27:46;12.10;92.80
7998;DHT22;4044;49.814;7.828;2022-08-21T04:30:12;12.00;92.50
7998;DHT22;4044;49.814;7.828;2022-08-21T04:32:42;12.10;92.10
7998;DHT22;4044;49.814;7.828;2022-08-21T04:35:10;12.10;91.60
7998;DHT22;4044;49.814;7.828;2022-08-21T04:37:35;12.10;92.30
7998;DHT22;4044;49.814;7.828;2022-08-21T04:40:03;12.10;92.70
7998;DHT22;4044;49.814;7.828;2022-08-21T04:42:29;12.00;92.10
7998;DHT22;4044;49.814;7.828;2022-08-21T04:44:55;12.10;91.80
7998;DHT22;4044;49.814;7.828;2022-08-21T04:47:22;12.10;91.40
7998;DHT22;4044;49.814;7.828;2022-08-21T04:49:48;12.20;92.30
7998;DHT22;4044;49.814;7.828;2022-08-21T04:52:17;12.30;92.30
7998;DHT22;4044;49.814;7.828;2022-08-21T04:54:44;12.30;91.80
7998;DHT22;4044;49.814;7.828;2022-08-21T04:57:11;12.40;91.70
7998;DHT22;4044;49.814;7.828;2022-08-21T04:59:44;12.40;91.50
7998;DHT22;4044;49.814;7.828;2022-08-21T05:02:10;12.40;91.50
7998;DHT22;4044;49.814;7.828;2022-08-21T05:04:39;12.50;91.90
7998;DHT22;4044;49.814;7.828;2022-08-21T05:07:10;12.50;92.00
7998;DHT22;4044;49.814;7.828;2022-08-21T05:09:38;12.50;92.10
7998;DHT22;4044;49.814;7.828;2022-08-21T05:12:04;12.50;91.50
7998;DHT22;4044;49.814;7.828;2022-08-21T05:14:30;12.50;91.50
7998;DHT22;4044;49.814;7.828;2022-08-21T05:16:55;12.60;91.30
7998;DHT22;4044;49.814;7.828;2022-08-21T05:19:21;12.70;91.50
7998;DHT22;4044;49.814;7.828;2022-08-21T05:21:47;12.70;91.40
7998;DHT22;4044;49.814;7.828;2022-08-21T05:24:15;12.70;91.30
7998;DHT22;4044;49.814;7.828;2022-08-21T05:26:41;12.80;91.60
7998;DHT22;4044;49.814;7.828;2022-08-21T05:29:07;12.90;91.40
7998;DHT22;4044;49.814;7.828;2022-08-21T05:31:33;13.00;91.50
7998;DHT22;4044;49.814;7.828;2022-08-21T05:33:59;13.00;91.10
7998;DHT22;4044;49.814;7.828;2022-08-21T05:36:25;13.10;90.90
7998;DHT22;4044;49.814;7.828;2022-08-21T05:38:50;13.10;90.50
7998;DHT22;4044;49.814;7.828;2022-08-21T05:41:16;13.20;90.90
7998;DHT22;4044;49.814;7.828;2022-08-21T05:43:42;13.20;90.50
7998;DHT22;4044;49.814;7.828;2022-08-21T05:46:08;13.30;90.80
7998;DHT22;4044;49.814;7.828;2022-08-21T05:48:34;13.40;90.60
7998;DHT22;4044;49.814;7.828;2022-08-21T05:51:05;13.50;90.40
7998;DHT22;4044;49.814;7.828;2022-08-21T05:53:31;13.60;90.40
7998;DHT22;4044;49.814;7.828;2022-08-21T05:55:57;13.60;90.40
7998;DHT22;4044;49.814;7.828;2022-08-21T05:58:22;13.70;90.50
7998;DHT22;4044;49.814;7.828;2022-08-21T06:00:49;13.80;90.30
7998;DHT22;4044;49.814;7.828;2022-08-21T06:03:22;13.90;90.30
7998;DHT22;4044;49.814;7.828;2022-08-21T06:05:47;14.00;90.00
7998;DHT22;4044;49.814;7.828;2022-08-21T06:08:15;14.10;90.20
7998;DHT22;4044;49.814;7.828;2022-08-21T06:10:42;14.20;90.70
7998;DHT22;4044;49.814;7.828;2022-08-21T06:13:07;14.20;90.50
7998;DHT22;4044;49.814;7.828;2022-08-21T06:15:33;14.30;90.10
7998;DHT22;4044;49.814;7.828;2022-08-21T06:17:59;14.40;90.30
7998;DHT22;4044;49.814;7.828;2022-08-21T06:20:24;14.60;88.90
7998;DHT22;4044;49.814;7.828;2022-08-21T06:22:50;14.70;89.30
7998;DHT22;4044;49.814;7.828;2022-08-21T06:25:16;14.80;88.80
7998;DHT22;4044;49.814;7.828;2022-08-21T06:27:42;14.90;89.00
7998;DHT22;4044;49.814;7.828;2022-08-21T06:30:08;15.00;88.40
7998;DHT22;4044;49.814;7.828;2022-08-21T06:32:34;15.20;87.90
7998;DHT22;4044;49.814;7.828;2022-08-21T06:34:59;15.30;87.10
7998;DHT22;4044;49.814;7.828;2022-08-21T06:37:25;15.40;86.60
7998;DHT22;4044;49.814;7.828;2022-08-21T06:39:51;15.50;86.60
7998;DHT22;4044;49.814;7.828;2022-08-21T06:42:17;15.60;86.20
7998;DHT22;4044;49.814;7.828;2022-08-21T06:44:43;15.70;85.70
7998;DHT22;4044;49.814;7.828;2022-08-21T06:47:09;15.90;85.20
7998;DHT22;4044;49.814;7.828;2022-08-21T06:49:35;15.90;84.40
7998;DHT22;4044;49.814;7.828;2022-08-21T06:52:01;16.00;84.70
7998;DHT22;4044;49.814;7.828;2022-08-21T06:54:26;16.20;84.50
7998;DHT22;4044;49.814;7.828;2022-08-21T06:56:52;16.20;82.90
7998;DHT22;4044;49.814;7.828;2022-08-21T06:59:18;16.30;82.90
7998;DHT22;4044;49.814;7.828;2022-08-21T07:01:43;16.50;84.10
7998;DHT22;4044;49.814;7.828;2022-08-21T07:04:09;16.70;83.10
7998;DHT22;4044;49.814;7.828;2022-08-21T07:06:35;16.80;83.00
7998;DHT22;4044;49.814;7.828;2022-08-21T07:09:00;17.10;84.10
7998;DHT22;4044;49.814;7.828;2022-08-21T07:11:27;17.40;81.40
7998;DHT22;4044;49.814;7.828;2022-08-21T07:13:53;17.40;80.80
7998;DHT22;4044;49.814;7.828;2022-08-21T07:16:20;17.50;80.70
7998;DHT22;4044;49.814;7.828;2022-08-21T07:18:46;17.70;80.60
7998;DHT22;4044;49.814;7.828;2022-08-21T07:21:12;17.90;80.40
7998;DHT22;4044;49.814;7.828;2022-08-21T07:23:40;18.10;79.20
7998;DHT22;4044;49.814;7.828;2022-08-21T07:26:07;18.20;79.40
7998;DHT22;4044;49.814;7.828;2022-08-21T07:28:34;18.40;78.60
7998;DHT22;4044;49.814;7.828;2022-08-21T07:31:00;18.50;78.50
7998;DHT22;4044;49.814;7.828;2022-08-21T07:33:28;18.70;77.90
7998;DHT22;4044;49.814;7.828;2022-08-21T07:35:54;18.80;77.20
7998;DHT22;4044;49.814;7.828;2022-08-21T07:38:20;18.90;76.90
7998;DHT22;4044;49.814;7.828;2022-08-21T07:40:47;19.00;76.70
7998;DHT22;4044;49.814;7.828;2022-08-21T07:43:13;19.10;76.70
7998;DHT22;4044;49.814;7.828;2022-08-21T07:45:41;19.20;76.60
7998;DHT22;4044;49.814;7.828;2022-08-21T07:48:07;19.30;75.80
7998;DHT22;4044;49.814;7.828;2022-08-21T07:50:33;19.40;75.40
7998;DHT22;4044;49.814;7.828;2022-08-21T07:52:58;19.60;75.20
7998;DHT22;4044;49.814;7.828;2022-08-21T07:55:24;19.70;75.10
7998;DHT22;4044;49.814;7.828;2022-08-21T07:57:49;19.80;75.00
7998;DHT22;4044;49.814;7.828;2022-08-21T08:00:18;19.90;73.80
7998;DHT22;4044;49.814;7.828;2022-08-21T08:02:46;20.00;74.20
7998;DHT22;4044;49.814;7.828;2022-08-21T08:05:15;20.10;74.10
7998;DHT22;4044;49.814;7.828;2022-08-21T08:07:41;20.20;74.20
7998;DHT22;4044;49.814;7.828;2022-08-21T08:10:08;20.40;73.80
7998;DHT22;4044;49.814;7.828;2022-08-21T08:12:35;20.60;72.90
7998;DHT22;4044;49.814;7.828;2022-08-21T08:15:01;20.70;72.40
7998;DHT22;4044;49.814;7.828;2022-08-21T08:17:27;20.90;72.30
7998;DHT22;4044;49.814;7.828;2022-08-21T08:19:53;21.00;70.40
7998;DHT22;4044;49.814;7.828;2022-08-21T08:22:21;21.10;71.10
7998;DHT22;4044;49.814;7.828;2022-08-21T08:24:47;21.30;71.80
7998;DHT22;4044;49.814;7.828;2022-08-21T08:27:14;21.40;70.40
7998;DHT22;4044;49.814;7.828;2022-08-21T08:29:40;21.50;69.20
7998;DHT22;4044;49.814;7.828;2022-08-21T08:32:05;21.70;70.60
7998;DHT22;4044;49.814;7.828;2022-08-21T08:34:35;21.80;68.00
7998;DHT22;4044;49.814;7.828;2022-08-21T08:37:00;22.00;67.10
7998;DHT22;4044;49.814;7.828;2022-08-21T08:39:26;22.10;67.30
7998;DHT22;4044;49.814;7.828;2022-08-21T08:42:01;22.30;68.00
7998;DHT22;4044;49.814;7.828;2022-08-21T08:44:29;22.40;66.60
7998;DHT22;4044;49.814;7.828;2022-08-21T08:46:56;22.60;65.40
7998;DHT22;4044;49.814;7.828;2022-08-21T08:49:43;22.70;65.50
7998;DHT22;4044;49.814;7.828;2022-08-21T08:52:29;22.80;65.00
7998;DHT22;4044;49.814;7.828;2022-08-21T08:55:07;23.00;63.50
7998;DHT22;4044;49.814;7.828;2022-08-21T08:57:34;23.10;61.50
7998;DHT22;4044;49.814;7.828;2022-08-21T09:00:04;23.30;63.30
7998;DHT22;4044;49.814;7.828;2022-08-21T09:02:30;23.40;63.30
7998;DHT22;4044;49.814;7.828;2022-08-21T09:04:59;23.50;64.10
7998;DHT22;4044;49.814;7.828;2022-08-21T09:07:35;23.60;63.50
7998;DHT22;4044;49.814;7.828;2022-08-21T09:10:09;23.70;62.70
7998;DHT22;4044;49.814;7.828;2022-08-21T09:13:16;23.80;63.10
7998;DHT22;4044;49.814;7.828;2022-08-21T09:15:51;23.90;61.60
7998;DHT22;4044;49.814;7.828;2022-08-21T09:27:12;24.30;59.00
7998;DHT22;4044;49.814;7.828;2022-08-21T09:29:41;24.40;60.50
7998;DHT22;4044;49.814;7.828;2022-08-21T09:32:15;24.40;58.80
7998;DHT22;4044;49.814;7.828;2022-08-21T09:34:42;24.50;58.50
7998;DHT22;4044;49.814;7.828;2022-08-21T09:37:16;24.60;58.10
7998;DHT22;4044;49.814;7.828;2022-08-21T09:39:42;24.60;57.80
7998;DHT22;4044;49.814;7.828;2022-08-21T09:42:09;24.70;58.50
7998;DHT22;4044;49.814;7.828;2022-08-21T09:44:37;24.80;59.60
7998;DHT22;4044;49.814;7.828;2022-08-21T09:47:09;24.90;59.10
7998;DHT22;4044;49.814;7.828;2022-08-21T09:49:37;25.10;58.50
7998;DHT22;4044;49.814;7.828;2022-08-21T09:52:13;25.20;56.00
7998;DHT22;4044;49.814;7.828;2022-08-21T09:54:40;25.40;56.30
7998;DHT22;4044;49.814;7.828;2022-08-21T09:59:54;25.60;56.90
7998;DHT22;4044;49.814;7.828;2022-08-21T10:02:28;25.80;55.30
7998;DHT22;4044;49.814;7.828;2022-08-21T10:04:58;25.80;54.70
7998;DHT22;4044;49.814;7.828;2022-08-21T10:07:25;25.90;53.20
7998;DHT22;4044;49.814;7.828;2022-08-21T10:10:09;26.10;54.80
7998;DHT22;4044;49.814;7.828;2022-08-21T10:12:55;26.20;53.20
7998;DHT22;4044;49.814;7.828;2022-08-21T10:15:56;26.40;52.30
7998;DHT22;4044;49.814;7.828;2022-08-21T10:24:01;27.20;51.00
7998;DHT22;4044;49.814;7.828;2022-08-21T10:27:29;27.40;49.20
7998;DHT22;4044;49.814;7.828;2022-08-21T10:29:37;27.60;49.30
7998;DHT22;4044;49.814;7.828;2022-08-21T10:37:52;28.30;48.60
7998;DHT22;4044;49.814;7.828;2022-08-21T10:43:35;28.70;47.40
7998;DHT22;4044;49.814;7.828;2022-08-21T10:46:36;28.60;47.10
7998;DHT22;4044;49.814;7.828;2022-08-21T10:49:29;28.40;48.40
7998;DHT22;4044;49.814;7.828;2022-08-21T10:55:11;28.30;48.60
7998;DHT22;4044;49.814;7.828;2022-08-21T10:58:02;28.50;48.50
7998;DHT22;4044;49.814;7.828;2022-08-21T11:00:39;28.80;47.40
7998;DHT22;4044;49.814;7.828;2022-08-21T11:08:44;29.50;46.60
7998;DHT22;4044;49.814;7.828;2022-08-21T11:11:12;29.80;46.90
7998;DHT22;4044;49.814;7.828;2022-08-21T11:13:47;30.00;46.00
7998;DHT22;4044;49.814;7.828;2022-08-21T11:16:39;30.20;44.40
7998;DHT22;4044;49.814;7.828;2022-08-21T11:19:08;30.20;44.70
7998;DHT22;4044;49.814;7.828;2022-08-21T11:21:42;30.10;43.50
7998;DHT22;4044;49.814;7.828;2022-08-21T11:24:22;29.90;43.80
7998;DHT22;4044;49.814;7.828;2022-08-21T11:27:24;29.80;44.30
7998;DHT22;4044;49.814;7.828;2022-08-21T11:29:52;30.00;44.20
7998;DHT22;4044;49.814;7.828;2022-08-21T11:32:49;30.10;44.30
7998;DHT22;4044;49.814;7.828;2022-08-21T11:35:39;30.60;43.50
7998;DHT22;4044;49.814;7.828;2022-08-21T11:38:32;30.70;43.00
7998;DHT22;4044;49.814;7.828;2022-08-21T11:44:02;31.80;42.40
7998;DHT22;4044;49.814;7.828;2022-08-21T11:49:29;32.40;42.20
7998;DHT22;4044;49.814;7.828;2022-08-21T11:52:20;32.60;40.70
7998;DHT22;4044;49.814;7.828;2022-08-21T11:54:59;32.90;41.10
7998;DHT22;4044;49.814;7.828;2022-08-21T12:03:04;33.10;40.50
7998;DHT22;4044;49.814;7.828;2022-08-21T12:05:33;33.40;39.70
7998;DHT22;4044;49.814;7.828;2022-08-21T12:08:14;34.50;39.30
7998;DHT22;4044;49.814;7.828;2022-08-21T12:10:46;35.30;38.80
7998;DHT22;4044;49.814;7.828;2022-08-21T12:13:26;35.80;37.50
7998;DHT22;4044;49.814;7.828;2022-08-21T12:15:52;36.30;37.00
7998;DHT22;4044;49.814;7.828;2022-08-21T12:18:29;35.70;36.50
7998;DHT22;4044;49.814;7.828;2022-08-21T12:21:22;36.90;36.80
7998;DHT22;4044;49.814;7.828;2022-08-21T12:24:16;37.00;35.10
7998;DHT22;4044;49.814;7.828;2022-08-21T12:26:54;36.00;37.00
7998;DHT22;4044;49.814;7.828;2022-08-21T12:29:26;35.40;37.50
7998;DHT22;4044;49.814;7.828;2022-08-21T12:32:24;34.70;37.70
7998;DHT22;4044;49.814;7.828;2022-08-21T12:35:14;34.40;37.10
7998;DHT22;4044;49.814;7.828;2022-08-21T12:37:52;35.30;37.50
7998;DHT22;4044;49.814;7.828;2022-08-21T12:40:31;36.70;35.50
7998;DHT22;4044;49.814;7.828;2022-08-21T12:43:00;37.80;36.30
7998;DHT22;4044;49.814;7.828;2022-08-21T12:45:47;39.30;33.90
7998;DHT22;4044;49.814;7.828;2022-08-21T12:48:15;39.30;32.20
7998;DHT22;4044;49.814;7.828;2022-08-21T12:50:53;39.60;31.90
7998;DHT22;4044;49.814;7.828;2022-08-21T12:55:56;41.00;30.50
7998;DHT22;4044;49.814;7.828;2022-08-21T12:58:27;40.30;31.00
7998;DHT22;4044;49.814;7.828;2022-08-21T13:01:07;40.20;31.50
7998;DHT22;4044;49.814;7.828;2022-08-21T13:03:35;40.30;32.10
7998;DHT22;4044;49.814;7.828;2022-08-21T13:06:04;41.00;31.10
7998;DHT22;4044;49.814;7.828;2022-08-21T13:08:30;41.10;30.10
7998;DHT22;4044;49.814;7.828;2022-08-21T13:11:05;41.90;30.20
7998;DHT22;4044;49.814;7.828;2022-08-21T13:13:31;42.30;29.60
7998;DHT22;4044;49.814;7.828;2022-08-21T13:16:04;42.70;30.00
7998;DHT22;4044;49.814;7.828;2022-08-21T13:18:33;43.00;30.00
7998;DHT22;4044;49.814;7.828;2022-08-21T13:21:13;43.60;30.20
7998;DHT22;4044;49.814;7.828;2022-08-21T13:23:39;44.50;28.00
7998;DHT22;4044;49.814;7.828;2022-08-21T13:26:18;44.80;29.50
7998;DHT22;4044;49.814;7.828;2022-08-21T13:28:43;45.10;27.10
7998;DHT22;4044;49.814;7.828;2022-08-21T13:31:13;45.40;28.30
7998;DHT22;4044;49.814;7.828;2022-08-21T13:33:41;45.30;27.70
7998;DHT22;4044;49.814;7.828;2022-08-21T13:36:26;43.80;27.40
7998;DHT22;4044;49.814;7.828;2022-08-21T13:38:53;42.40;29.40
7998;DHT22;4044;49.814;7.828;2022-08-21T13:41:24;41.20;29.90
7998;DHT22;4044;49.814;7.828;2022-08-21T13:44:01;40.40;29.90
7998;DHT22;4044;49.814;7.828;2022-08-21T13:46:31;39.40;30.40
7998;DHT22;4044;49.814;7.828;2022-08-21T13:48:59;38.90;31.50
7998;DHT22;4044;49.814;7.828;2022-08-21T13:51:26;38.30;31.20
7998;DHT22;4044;49.814;7.828;2022-08-21T13:53:52;37.50;32.20
7998;DHT22;4044;49.814;7.828;2022-08-21T13:56:32;37.00;33.00
7998;DHT22;4044;49.814;7.828;2022-08-21T13:58:59;36.40;32.70
7998;DHT22;4044;49.814;7.828;2022-08-21T14:01:29;35.90;33.10
7998;DHT22;4044;49.814;7.828;2022-08-21T14:04:04;35.50;33.80
7998;DHT22;4044;49.814;7.828;2022-08-21T14:06:35;35.20;33.90
7998;DHT22;4044;49.814;7.828;2022-08-21T14:09:09;35.20;34.10
7998;DHT22;4044;49.814;7.828;2022-08-21T14:11:36;34.80;34.10
7998;DHT22;4044;49.814;7.828;2022-08-21T14:14:05;34.20;34.70
7998;DHT22;4044;49.814;7.828;2022-08-21T14:17:01;33.70;35.60
7998;DHT22;4044;49.814;7.828;2022-08-21T14:19:37;33.40;35.00
7998;DHT22;4044;49.814;7.828;2022-08-21T14:25:10;33.00;35.20
7998;DHT22;4044;49.814;7.828;2022-08-21T14:30:32;37.10;33.70
7998;DHT22;4044;49.814;7.828;2022-08-21T14:32:59;39.10;32.00
7998;DHT22;4044;49.814;7.828;2022-08-21T14:35:25;40.40;30.30
7998;DHT22;4044;49.814;7.828;2022-08-21T14:37:51;40.70;30.00
7998;DHT22;4044;49.814;7.828;2022-08-21T14:40:19;41.90;28.70
7998;DHT22;4044;49.814;7.828;2022-08-21T14:42:44;42.50;29.10
7998;DHT22;4044;49.814;7.828;2022-08-21T14:45:23;43.70;27.90
7998;DHT22;4044;49.814;7.828;2022-08-21T14:47:50;43.60;27.60
7998;DHT22;4044;49.814;7.828;2022-08-21T14:50:16;44.40;27.60
7998;DHT22;4044;49.814;7.828;2022-08-21T14:52:42;44.80;27.80
7998;DHT22;4044;49.814;7.828;2022-08-21T14:55:09;45.80;26.90
7998;DHT22;4044;49.814;7.828;2022-08-21T14:57:47;45.70;26.70
7998;DHT22;4044;49.814;7.828;2022-08-21T15:00:15;45.90;27.10
7998;DHT22;4044;49.814;7.828;2022-08-21T15:02:42;46.00;26.70
7998;DHT22;4044;49.814;7.828;2022-08-21T15:05:08;45.60;26.00
7998;DHT22;4044;49.814;7.828;2022-08-21T15:07:34;45.20;27.30
7998;DHT22;4044;49.814;7.828;2022-08-21T15:09:59;45.40;27.40
7998;DHT22;4044;49.814;7.828;2022-08-21T15:12:25;46.10;26.70
7998;DHT22;4044;49.814;7.828;2022-08-21T15:14:51;46.70;26.70
7998;DHT22;4044;49.814;7.828;2022-08-21T15:17:18;47.40;26.50
7998;DHT22;4044;49.814;7.828;2022-08-21T15:19:43;47.40;25.60
7998;DHT22;4044;49.814;7.828;2022-08-21T15:22:09;46.90;25.50
7998;DHT22;4044;49.814;7.828;2022-08-21T15:24:34;46.10;25.90
7998;DHT22;4044;49.814;7.828;2022-08-21T15:27:01;45.10;26.20
7998;DHT22;4044;49.814;7.828;2022-08-21T15:29:30;43.90;27.40
7998;DHT22;4044;49.814;7.828;2022-08-21T15:31:58;42.70;28.00
7998;DHT22;4044;49.814;7.828;2022-08-21T15:34:26;41.50;28.30
7998;DHT22;4044;49.814;7.828;2022-08-21T15:36:52;40.20;29.10
7998;DHT22;4044;49.814;7.828;2022-08-21T15:39:18;38.70;29.70
7998;DHT22;4044;49.814;7.828;2022-08-21T15:41:44;38.10;30.40
7998;DHT22;4044;49.814;7.828;2022-08-21T15:44:11;37.40;31.00
7998;DHT22;4044;49.814;7.828;2022-08-21T15:46:38;36.70;30.80
7998;DHT22;4044;49.814;7.828;2022-08-21T15:49:04;36.10;32.00
7998;DHT22;4044;49.814;7.828;2022-08-21T15:51:29;35.80;31.80
7998;DHT22;4044;49.814;7.828;2022-08-21T15:53:55;35.70;32.90
7998;DHT22;4044;49.814;7.828;2022-08-21T15:56:23;36.00;31.90
7998;DHT22;4044;49.814;7.828;2022-08-21T15:58:50;35.90;32.50
7998;DHT22;4044;49.814;7.828;2022-08-21T16:01:17;35.90;32.60
7998;DHT22;4044;49.814;7.828;2022-08-21T16:03:47;35.50;32.50
7998;DHT22;4044;49.814;7.828;2022-08-21T16:06:13;35.10;33.70
7998;DHT22;4044;49.814;7.828;2022-08-21T16:08:38;34.70;33.40
7998;DHT22;4044;49.814;7.828;2022-08-21T16:11:04;34.30;33.90
7998;DHT22;4044;49.814;7.828;2022-08-21T16:13:35;33.80;35.00
7998;DHT22;4044;49.814;7.828;2022-08-21T16:16:01;33.20;35.30
7998;DHT22;4044;49.814;7.828;2022-08-21T16:18:27;32.90;35.60
7998;DHT22;4044;49.814;7.828;2022-08-21T16:20:53;32.60;36.00
7998;DHT22;4044;49.814;7.828;2022-08-21T16:23:18;32.40;36.70
7998;DHT22;4044;49.814;7.828;2022-08-21T16:25:44;32.20;37.50
7998;DHT22;4044;49.814;7.828;2022-08-21T16:28:13;31.90;37.50
7998;DHT22;4044;49.814;7.828;2022-08-21T16:30:39;31.70;38.00
7998;DHT22;4044;49.814;7.828;2022-08-21T16:33:05;31.50;38.20
7998;DHT22;4044;49.814;7.828;2022-08-21T16:35:32;31.40;38.30
7998;DHT22;4044;49.814;7.828;2022-08-21T16:37:58;31.30;39.00
7998;DHT22;4044;49.814;7.828;2022-08-21T16:40:23;31.10;38.40
7998;DHT22;4044;49.814;7.828;2022-08-21T16:42:52;31.00;39.00
7998;DHT22;4044;49.814;7.828;2022-08-21T16:45:18;30.80;40.10
7998;DHT22;4044;49.814;7.828;2022-08-21T16:47:45;30.50;41.00
7998;DHT22;4044;49.814;7.828;2022-08-21T16:50:15;30.40;40.50
7998;DHT22;4044;49.814;7.828;2022-08-21T16:52:41;30.40;41.40
7998;DHT22;4044;49.814;7.828;2022-08-21T16:55:06;30.20;42.00
7998;DHT22;4044;49.814;7.828;2022-08-21T16:57:32;30.20;41.00
7998;DHT22;4044;49.814;7.828;2022-08-21T16:59:58;30.40;40.60
7998;DHT22;4044;49.814;7.828;2022-08-21T17:02:31;30.50;41.90
7998;DHT22;4044;49.814;7.828;2022-08-21T17:04:57;30.50;41.70
7998;DHT22;4044;49.814;7.828;2022-08-21T17:07:23;30.40;42.70
7998;DHT22;4044;49.814;7.828;2022-08-21T17:09:48;30.20;43.60